ADDS METAR Data INFO
IDs: Format: Raw Decoded Include TAF

Data at: 1950 UTC 14 Aug 2018

KBBF 101645Z AUTO 21011KT 9SM CLR 29/23 A3002 RMK A01
KBBF 101635Z AUTO 20012KT 8SM FEW023 29/24 A3002 RMK A01
KBBF 101615Z AUTO 21011KT 8SM FEW023 FEW033 30/24 A3003 RMK A01
KBBF 101555Z AUTO 22013KT 8SM FEW024 SCT033 30/24 A3003 RMK A01
KBBF 101535Z AUTO 22012KT 8SM FEW022 30/24 A3003 RMK A01
KBBF 101515Z AUTO 21014KT 9SM SCT022 SCT027 29/24 A3003 RMK A01
KBBF 101455Z AUTO 21015KT 9SM BKN022 BKN027 BKN034 29/24 A3002 RMK A01
KBBF 101435Z AUTO 21013KT 9SM FEW024 30/24 A3002 RMK A01
KBBF 101415Z AUTO 21013KT 9SM CLR 29/23 A3001 RMK A01
KBBF 101355Z AUTO 21015KT 9SM CLR 30/23 A3001 RMK A01
KBBF 101335Z AUTO 21015KT 9SM CLR 29/23 A3001 RMK A01
KBBF 101315Z AUTO 21017KT 9SM FEW025 29/23 A3000 RMK A01
KBBF 101255Z AUTO 21016KT 9SM FEW023 29/23 A3000 RMK A01
KBBF 101235Z AUTO 20015KT 9SM 29/24 A2999 RMK A01
KBBF 101215Z AUTO 20016KT 29/23 A2999 RMK A01
KBBF 051250Z AUTO 13008G14KT 080V170 8SM CLR 30/23 A3005 RMK A01
KBBF 051235Z AUTO 14009G15KT 110V170 9SM CLR 30/23 A3005 RMK A01
KBBF 051215Z AUTO VRB06G13KT 9SM FEW026 FEW033 FEW043 30/24 A3004 RMK A01
KBBF 051155Z AUTO VRB06G14KT 9SM CLR 30/23 A3004 RMK A01
KBBF 051135Z AUTO 14009G15KT 9SM FEW029 SCT036 30/23 A3003 RMK A01
KBBF 051115Z AUTO 14011G18KT 9SM FEW027 SCT035 30/23 A3003 RMK A01
KBBF 051055Z AUTO 15015KT 9SM FEW026 30/23 A3002 RMK A01
KBBF 051035Z AUTO 14013G19KT 100V160 9SM FEW022 SCT027 30/24 A3001 RMK A01
KBBF 051015Z AUTO 14007G17KT 090V190 8SM SCT023 30/24 A3001 RMK A01
KBBF 050955Z AUTO 15016KT 9SM FEW021 29/24 A3001 RMK A01
KBBF 050935Z AUTO 14010G18KT 8SM FEW021 FEW027 30/24 A3001 RMK A01
KBBF 050915Z AUTO 15015KT 8SM CLR 29/24 A3001 RMK A01
KBBF 050855Z AUTO 15017KT FEW020 FEW025 SCT041 29/23 A3001 RMK A01
KBBF 050835Z AUTO 15016G22KT 9SM SCT021 BKN026 BKN033 29/24 A3001 RMK A01
KBBF 050815Z AUTO 15018KT 9SM SCT021 BKN026 BKN030 29/24 A3001 RMK A01
KBBF 050755Z AUTO 15015G21KT 9SM FEW020 29/24 A3001 RMK A01
KBBF 050735Z AUTO 15016KT 9SM SCT020 29/24 A3001 RMK A01
KBBF 050715Z AUTO 15016KT 8SM SCT020 SCT025 29/24 A3002 RMK A01
KBBF 050655Z AUTO 15016KT 8SM CLR 29/24 A3001 RMK A01
KBBF 050635Z AUTO 15017KT 8SM CLR 29/24 A3001 RMK A01
KBBF 050615Z AUTO 15015KT 8SM CLR 29/24 A3002 RMK A01
KBBF 050555Z AUTO 15018KT 7SM CLR 29/24 A3001 RMK A01
KBBF 050535Z AUTO 16018KT 7SM CLR 29/25 A3002 RMK A01
KBBF 050515Z AUTO 16015KT 7SM CLR 29/25 A3002 RMK A01
KBBF 050455Z AUTO 16016KT 8SM CLR 29/24 A3001 RMK A01
KBBF 050435Z AUTO 15019KT 8SM CLR 29/24 A3001 RMK A01
KBBF 050415Z AUTO 15017KT 9SM CLR 29/23 A3001 RMK A01
KBBF 050355Z AUTO 15016KT 9SM CLR 29/23 A3001 RMK A01
KBBF 050335Z AUTO 15016KT 9SM CLR 29/24 A3001 RMK A01
KBBF 050315Z AUTO 15015KT 8SM CLR 29/24 A3001 RMK A01
KBBF 050255Z AUTO 14012G18KT 9SM CLR 29/24 A3001 RMK A01
KBBF 050235Z AUTO 14015KT 9SM CLR 29/24 A3001 RMK A01
KBBF 050215Z AUTO 14012G18KT 10SM CLR 29/23 A3001 RMK A01
KBBF 050155Z AUTO 15015KT 10SM CLR 29/22 A3000 RMK A01
KBBF 050135Z AUTO 16015KT 10SM CLR 29/22 A3001 RMK A01
KBBF 050115Z AUTO 15013KT 10SM CLR 29/22 A3001 RMK A01
KBBF 050055Z AUTO 16014KT 10SM CLR 29/22 A3001 RMK A01
KBBF 050035Z AUTO 17015KT 9SM CLR 29/22 A3000 RMK A01
KBBF 050015Z AUTO 18019KT 9SM CLR 28/22 A3000 RMK A01
KBBF 042355Z AUTO 19020KT 10SM CLR 29/20 A3000 RMK A01
KBBF 042335Z AUTO 17018KT 10SM CLR 29/21 A3000 RMK A01
KBBF 042315Z AUTO 17018KT 9SM CLR 28/21 A2999 RMK A01
KBBF 042255Z AUTO 18022G28KT 8SM CLR 27/21 A3000 RMK A01
KBBF 042235Z AUTO 18022G27KT 8SM CLR 28/22 A3000 RMK A01
KBBF 042215Z AUTO 16022KT 8SM FEW039 FEW050 FEW065 28/23 A3000 RMK A01
KBBF 042155Z AUTO 17022KT 10SM FEW040 30/22 A3000 RMK A01
KBBF 042135Z AUTO 18016KT 10SM CLR 29/22 A3000 RMK A01
KBBF 042115Z AUTO 19014KT 10SM CLR 29/23 A2999 RMK A01
KBBF 042055Z AUTO 21014KT 10SM CLR 30/22 A3000 RMK A01
KBBF 042035Z AUTO 20014KT 9SM CLR 29/22 A3000 RMK A01
KBBF 042015Z AUTO 20012KT 9SM CLR 29/23 A3000 RMK A01
KBBF 041955Z AUTO 20017KT 9SM CLR 29/23 A3000 RMK A01
KBBF 041935Z AUTO 18014KT 10SM CLR 29/22 A3000 RMK A01
KBBF 041915Z AUTO 17018KT 9SM CLR 29/22 A3000 RMK A01
KBBF 041855Z AUTO 18016KT 9SM CLR 29/22 A3000 RMK A01
KBBF 041835Z AUTO 18017KT 10SM CLR 29/22 A3000 RMK A01
KBBF 041815Z AUTO 19015KT 9SM CLR 28/23 A3001 RMK A01
KBBF 041755Z AUTO 18013KT 8SM CLR 29/24 A3001 RMK A01
KBBF 041735Z AUTO 18016KT 9SM CLR 29/23 A3002 RMK A01
KBBF 041715Z AUTO 17017KT 9SM CLR 29/23 A3001 RMK A01
KBBF 041655Z AUTO 19016KT 10SM CLR 29/22 A3002 RMK A01
KBBF 041635Z AUTO 18017KT 10SM CLR 29/21 A3002 RMK A01
KBBF 041615Z AUTO 17018KT 10SM CLR 29/22 A3002 RMK A01
KBBF 041555Z AUTO 17017KT 10SM FEW025 FEW055 29/24 A3001 RMK A01
KBBF 041535Z AUTO 17017KT 10SM FEW026 SCT055 29/24 A3001 RMK A01
KBBF 041515Z AUTO 17016KT 10SM FEW032 FEW060 29/23 A3001 RMK A01
KBBF 041455Z AUTO 16014KT 10SM FEW027 FEW032 SCT060 29/23 A3001 RMK A01
KBBF 041435Z AUTO 16013KT 10SM FEW027 SCT034 SCT043 29/23 A3001 RMK A01
KBBF 041415Z AUTO VRB06KT 10SM SCT029 SCT036 29/22 A3000 RMK A01
KBBF 041355Z AUTO 10007KT 10SM CLR 29/22 A3000 RMK A01
KBBF 041335Z AUTO VRB04KT 10SM FEW028 FEW046 FEW050 28/21 A3000 RMK A01
KBBF 041315Z AUTO 16009G16KT 9SM FEW029 FEW046 SCT075 28/21 A3000 RMK A01
KBBF 041255Z AUTO 17017G25KT 9SM FEW024 FEW037 FEW100 28/20 A2999 RMK A01
KBBF 041235Z AUTO 18013G18KT 10SM FEW022 SCT026 SCT031 29/24 A2999 RMK A01
KBBF 041215Z AUTO 18010KT 10SM FEW022 FEW028 FEW041 29/24 A2998 RMK A01
KBBF 041155Z AUTO 19012KT 10SM 29/24 A2998 RMK A01
KBBF 041135Z AUTO 18011KT 29/24 A2998 RMK A01
KBBF 041115Z AUTO 20009KT 10SM CLR 29/23 A2997 RMK A01
KBBF 041055Z AUTO 20010KT 10SM FEW023 SCT028 SCT033 29/23 A2996 RMK A01
KBBF 041035Z AUTO 21010KT 10SM FEW025 29/23 A2996 RMK A01
KBBF 041015Z AUTO 21011KT 10SM FEW024 29/23 A2995 RMK A01
KBBF 040955Z AUTO 22011KT 10SM FEW024 FEW042 FEW050 29/23 A2995 RMK A01
KBBF 040935Z AUTO 22012KT 10SM FEW026 FEW030 SCT039 29/23 A2994 RMK A01
KBBF 040915Z AUTO 21012KT 10SM FEW024 SCT031 SCT036 29/23 A2994 RMK A01
KBBF 040855Z AUTO 22011KT 10SM FEW024 29/23 A2994 RMK A01
KBBF 040835Z AUTO 21013KT 10SM FEW024 29/23 A2994 RMK A01
KBBF 040815Z AUTO 21014KT 10SM CLR 29/23 A2994 RMK A01
KBBF 040755Z AUTO 20014KT 10SM FEW023 FEW037 SCT042 29/23 A2994 RMK A01
KBBF 040735Z AUTO 20015KT 10SM BKN023 BKN031 BKN038 29/23 A2995 RMK A01
KBBF 040715Z AUTO 19017KT 10SM BKN023 BKN032 29/23 A2995 RMK A01
KBBF 040655Z AUTO 20015KT 10SM FEW023 29/23 A2995 RMK A01
KBBF 040635Z AUTO 19014KT 10SM FEW020 FEW039 29/23 A2995 RMK A01
KBBF 040615Z AUTO 18014KT 10SM FEW021 FEW037 29/23 A2996 RMK A01
KBBF 040555Z AUTO 18014KT 10SM FEW020 FEW027 SCT036 29/23 A2996 RMK A01
KBBF 040535Z AUTO 18015KT 10SM FEW019 FEW027 29/24 A2996 RMK A01
KBBF 040515Z AUTO 19013KT 10SM CLR 29/23 A2997 RMK A01
KBBF 040455Z AUTO 18016KT 10SM FEW021 FEW033 29/23 A2997 RMK A01
KBBF 040435Z AUTO 19017KT 10SM CLR 29/23 A2997 RMK A01
KBBF 040415Z AUTO 19016KT 10SM CLR 29/23 A2997 RMK A01
KBBF 040355Z AUTO 18015KT 10SM FEW019 29/24 A2997 RMK A01
KBBF 040335Z AUTO 18014KT 10SM FEW019 FEW030 29/23 A2997 RMK A01
KBBF 040315Z AUTO 19015KT 10SM SCT019 SCT030 29/24 A2996 RMK A01
KBBF 040255Z AUTO 19013KT 10SM CLR 29/24 A2996 RMK A01
KBBF 040235Z AUTO 17015KT 10SM FEW022 29/23 A2996 RMK A01
KBBF 040215Z AUTO 18014KT 10SM CLR 29/23 A2995 RMK A01
KBBF 040155Z AUTO 17015KT 10SM CLR 29/24 A2995 RMK A01
KBBF 040135Z AUTO 18014KT 10SM FEW022 FEW027 FEW036 29/24 A2995 RMK A01
KBBF 040115Z AUTO 18019KT 10SM FEW024 FEW036 29/24 A2995 RMK A01
KBBF 040055Z AUTO 17016KT 10SM FEW025 FEW030 29/23 A2995 RMK A01
KBBF 040035Z AUTO 16015KT 10SM FEW026 29/23 A2994 RMK A01
KBBF 040015Z AUTO 16015KT 10SM CLR 29/23 A2995 RMK A01
KBBF 032355Z AUTO 15014KT 10SM CLR 29/23 A2994 RMK A01
KBBF 032335Z AUTO 15015KT 10SM CLR 29/23 A2994 RMK A01
KBBF 032315Z AUTO 14012G17KT 10SM CLR 30/23 A2995 RMK A01
KBBF 032255Z AUTO 14011G16KT 10SM CLR 30/23 A2994 RMK A01
KBBF 032235Z AUTO 13007G16KT 360V160 10SM CLR 30/22 A2995 RMK A01
KBBF 032215Z AUTO VRB06G16KT 10SM FEW026 FEW033 30/23 A2996 RMK A01
KBBF 032155Z AUTO VRB05G13KT 10SM FEW025 SCT033 31/23 A2996 RMK A01
KBBF 032135Z AUTO 11010KT 10SM CLR 31/23 A2996 RMK A01
KBBF 032115Z AUTO 12009G16KT 090V180 10SM FEW025 FEW030 30/23 A2996 RMK A01
KBBF 032055Z AUTO 09014KT 10SM SCT024 SCT033 SCT042 29/24 A2997 RMK A01
KBBF 032035Z AUTO 09016KT CLR 29/23 A2997 RMK A01
KBBF 032015Z AUTO 10015KT 10SM CLR 29/23 A2997 RMK A01
KBBF 031955Z AUTO 09015KT 10SM FEW023 FEW027 SCT039 29/23 A2998 RMK A01
KBBF 031935Z AUTO 08016KT 10SM FEW030 FEW038 29/23 A2997 RMK A01
KBBF 031915Z AUTO 07014KT 10SM FEW021 FEW031 FEW038 29/23 A2998 RMK A01
KBBF 031855Z AUTO 08014KT 10SM FEW021 FEW031 SCT040 29/24 A2998 RMK A01
KBBF 031835Z AUTO 07013KT 10SM FEW022 FEW030 SCT034 29/24 A2998 RMK A01
KBBF 031815Z AUTO 07013KT 10SM FEW024 FEW032 SCT050 29/23 A2999 RMK A01
KBBF 031755Z AUTO 07012KT 10SM SCT024 BKN030 BKN036 29/23 A2999 RMK A01
KBBF 031735Z AUTO 06009KT 10SM SCT024 SCT030 BKN043 29/23 A2999 RMK A01
KBBF 031715Z AUTO 09007KT 10SM CLR 29/22 A3000 RMK A01
KBBF 031655Z AUTO 08008KT 10SM CLR 30/22 A3000 RMK A01
KBBF 031635Z AUTO 08006KT 10SM CLR 30/21 A3000 RMK A01
KBBF 031615Z AUTO 07007KT 10SM CLR 29/22 A3001 RMK A01
KBBF 031555Z AUTO 09006KT 10SM CLR 29/22 A3000 RMK A01
KBBF 031535Z AUTO 09007KT 10SM CLR 29/22 A3001 RMK A01
KBBF 031515Z AUTO 09007KT 10SM CLR 29/22 A3001 RMK A01
KBBF 031455Z AUTO 09008KT 10SM CLR 30/22 A3001 RMK A01
KBBF 031435Z AUTO 09005KT 10SM CLR 30/22 A3000 RMK A01
KBBF 031415Z AUTO 09005KT 10SM CLR 30/22 A3000 RMK A01
KBBF 031355Z AUTO 10006KT 10SM CLR 30/21 A3000 RMK A01
KBBF 031335Z AUTO 10007KT 10SM FEW031 29/21 A2998 RMK A01
KBBF 031315Z AUTO 09008KT 10SM FEW031 29/21 A2998 RMK A01
KBBF 031255Z AUTO 10007KT 10SM FEW031 29/21 A2998 RMK A01
KBBF 031235Z AUTO 09005KT 10SM SCT028 29/22 A2998 RMK A01
KBBF 031215Z AUTO 07005KT 10SM SCT026 29/22 A2997 RMK A01
KBBF 031155Z AUTO 09005KT 10SM SCT028 29/22 A2996 RMK A01
KBBF 031135Z AUTO 09005KT 10SM FEW025 FEW031 29/22 A2996 RMK A01
KBBF 031115Z AUTO 00000KT 10SM SCT025 SCT031 29/22 A2995 RMK A01
KBBF 031055Z AUTO 00000KT 10SM CLR 29/22 A2995 RMK A01
KBBF 031035Z AUTO 00000KT 10SM FEW025 FEW030 29/23 A2994 RMK A01
KBBF 031015Z AUTO 09005KT 10SM SCT027 29/22 A2994 RMK A01
KBBF 030955Z AUTO 10006KT 10SM FEW027 29/22 A2994 RMK A01
KBBF 030935Z AUTO VRB04KT 10SM CLR 29/22 A2994 RMK A01
KBBF 030915Z AUTO VRB03KT 10SM CLR 29/22 A2994 RMK A01
KBBF 030855Z AUTO 00000KT 10SM CLR 29/22 A2994 RMK A01
KBBF 030835Z AUTO 00000KT 10SM CLR 29/22 A2994 RMK A01
KBBF 030815Z AUTO 14006KT 10SM CLR 29/22 A2994 RMK A01
KBBF 030755Z AUTO VRB06KT 10SM CLR 29/22 A2994 RMK A01
KBBF 030735Z AUTO 00000KT 10SM CLR 29/22 A2994 RMK A01
KBBF 030715Z AUTO VRB03KT 10SM CLR 29/22 A2995 RMK A01
KBBF 030655Z AUTO 14007KT 110V170 10SM CLR 29/22 A2995 RMK A01
KBBF 030635Z AUTO 15007KT 130V210 10SM CLR 29/22 A2995 RMK A01
KBBF 030615Z AUTO 15009KT 10SM CLR 29/22 A2996 RMK A01
KBBF 030555Z AUTO 16011KT 10SM CLR 29/22 A2996 RMK A01
KBBF 030535Z AUTO 15009KT 10SM CLR 29/22 A2997 RMK A01
KBBF 030515Z AUTO 15009KT 10SM CLR 29/22 A2997 RMK A01
KBBF 030455Z AUTO 14008KT 10SM CLR 29/22 A2997 RMK A01
KBBF 030435Z AUTO 15010KT 10SM CLR 29/22 A2997 RMK A01
KBBF 030415Z AUTO 15009KT 10SM CLR 30/22 A2997 RMK A01
KBBF 030355Z AUTO VRB05KT 10SM CLR 30/22 A2997 RMK A01
KBBF 030335Z AUTO 14007KT 10SM CLR 30/22 A2997 RMK A01
KBBF 030315Z AUTO VRB06KT 10SM CLR 30/22 A2997 RMK A01
KBBF 030255Z AUTO VRB05KT 10SM CLR 30/22 A2996 RMK A01
KBBF 030235Z AUTO 14009KT 100V160 10SM CLR 30/22 A2995 RMK A01
KBBF 030215Z AUTO VRB05G13KT 10SM CLR 30/22 A2994 RMK A01
KBBF 030155Z AUTO VRB05G13KT 10SM CLR 30/23 A2994 RMK A01
KBBF 030135Z AUTO VRB04G12KT 10SM CLR 30/23 A2994 RMK A01
KBBF 030115Z AUTO VRB06G15KT 10SM CLR 30/23 A2994 RMK A01
KBBF 030055Z AUTO VRB05G10KT 10SM CLR 30/22 A2994 RMK A01
KBBF 030035Z AUTO VRB05G11KT 10SM CLR 30/22 A2994 RMK A01
KBBF 030015Z AUTO VRB04G13KT 10SM CLR 30/23 A2994 RMK A01
KBBF 022355Z AUTO 11008KT 10SM CLR 30/22 A2994 RMK A01
KBBF 022335Z AUTO 11009KT 10SM CLR 30/22 A2994 RMK A01
KBBF 022315Z AUTO 11005KT 10SM CLR 30/21 A2993 RMK A01
KBBF 022255Z AUTO VRB04KT 10SM CLR 30/21 A2993 RMK A01
KBBF 022235Z AUTO 10006KT 10SM CLR 30/20 A2994 RMK A01
KBBF 022215Z AUTO 10004KT 10SM CLR 30/20 A2994 RMK A01
KBBF 022155Z AUTO 10005KT 10SM CLR 30/20 A2994 RMK A01
KBBF 022135Z AUTO 09006KT 10SM CLR 30/19 A2994 RMK A01
KBBF 022115Z AUTO 05005KT 10SM CLR 30/20 A2995 RMK A01
KBBF 022055Z AUTO 04006KT 10SM CLR 30/20 A2995 RMK A01
KBBF 022035Z AUTO 04007KT 10SM CLR 30/20 A2995 RMK A01
KBBF 022015Z AUTO 05006KT 10SM CLR 29/20 A2996 RMK A01
KBBF 021955Z AUTO 05008KT 10SM CLR 29/21 A2995 RMK A01
KBBF 021935Z AUTO 04009KT 10SM CLR 29/22 A2996 RMK A01
KBBF 021915Z AUTO 02008KT 10SM CLR 29/23 A2996 RMK A01
KBBF 021855Z AUTO 04009KT 10SM CLR 29/23 A2997 RMK A01
KBBF 021835Z AUTO 03011KT 10SM CLR 29/23 A2998 RMK A01
KBBF 021815Z AUTO 04012KT 10SM FEW020 29/23 A2998 RMK A01
KBBF 021755Z AUTO 04011KT 10SM CLR 29/23 A2998 RMK A01
KBBF 021735Z AUTO 03010KT 10SM CLR 29/23 A2999 RMK A01
KBBF 021715Z AUTO 04009KT 10SM CLR 29/23 A2999 RMK A01
KBBF 021655Z AUTO 04009KT 10SM CLR 29/23 A2999 RMK A01
KBBF 021635Z AUTO 02009KT 10SM CLR 29/22 A2999 RMK A01
KBBF 021615Z AUTO 03009KT 10SM CLR 29/22 A2998 RMK A01
KBBF 021555Z AUTO 02010KT 10SM CLR 29/23 A2999 RMK A01
KBBF 021015Z AUTO 20003KT 10SM CLR 29/22 A2994 RMK A01
KBBF 020955Z AUTO 18003KT 10SM CLR 29/21 A2994 RMK A01
KBBF 020935Z AUTO 00000KT 10SM CLR 29/22 A2994 RMK A01
KBBF 020915Z AUTO 19005KT 10SM CLR 29/22 A2994 RMK A01
KBBF 020855Z AUTO 19004KT 10SM SCT050 29/22 A2994 RMK A01
KBBF 020835Z AUTO 20005KT 10SM FEW026 FEW031 SCT050 29/22 A2994 RMK A01
KBBF 020815Z AUTO 19005KT 10SM SCT026 SCT031 SCT038 29/22 A2994 RMK A01
KBBF 020755Z AUTO 18006KT 10SM FEW024 FEW045 SCT055 29/23 A2994 RMK A01
KBBF 020735Z AUTO 18007KT 10SM FEW024 FEW048 FEW055 29/22 A2994 RMK A01
KBBF 020715Z AUTO 17007KT 10SM FEW049 SCT060 29/22 A2994 RMK A01
KBBF 020655Z AUTO 17006KT 10SM FEW050 FEW055 29/23 A2994 RMK A01
KBBF 020635Z AUTO 18006KT 10SM CLR 29/23 A2994 RMK A01
KBBF 020615Z AUTO 17007KT 10SM CLR 29/23 A2994 RMK A01
KBBF 020555Z AUTO 17007KT 10SM CLR 29/23 A2994 RMK A01
KBBF 020535Z AUTO 17007KT 10SM CLR 29/23 A2994 RMK A01
KBBF 020515Z AUTO 17009KT 10SM CLR 29/23 A2995 RMK A01
KBBF 020455Z AUTO 16009KT 10SM CLR 29/23 A2995 RMK A01
KBBF 020435Z AUTO 16010KT 10SM CLR 29/23 A2995 RMK A01
KBBF 020415Z AUTO 16010KT 10SM CLR 29/23 A2995 RMK A01
KBBF 020355Z AUTO 15012KT 10SM CLR 29/23 A2995 RMK A01
KBBF 020335Z AUTO 15010KT 10SM CLR 29/23 A2995 RMK A01
KBBF 020315Z AUTO 16010KT 10SM CLR 29/23 A2995 RMK A01
KBBF 020255Z AUTO 15009KT 10SM CLR 29/23 A2994 RMK A01
KBBF 020235Z AUTO 16010KT 10SM CLR 29/23 A2993 RMK A01
KBBF 020215Z AUTO 15009KT 10SM CLR 29/22 A2993 RMK A01
KBBF 020155Z AUTO 16009KT 10SM CLR 29/22 A2992 RMK A01
KBBF 020135Z AUTO 16009KT 10SM CLR 29/21 A2992 RMK A01
KBBF 020115Z AUTO 15007KT 10SM CLR 29/21 A2991 RMK A01
KBBF 020055Z AUTO VRB06KT 10SM CLR 29/21 A2991 RMK A01
KBBF 020035Z AUTO 15008KT 10SM CLR 29/21 A2991 RMK A01
KBBF 020015Z AUTO 17007KT 10SM CLR 29/21 A2991 RMK A01
KBBF 012355Z AUTO 00000KT 10SM CLR 30/22 A2991 RMK A01
KBBF 012335Z AUTO 00000KT 10SM CLR 30/22 A2990 RMK A01
KBBF 012315Z AUTO VRB03KT 10SM CLR 29/22 A2990 RMK A01
KBBF 012255Z AUTO 00000KT 10SM CLR 29/22 A2990 RMK A01
KBBF 012235Z AUTO 10003KT 10SM CLR 29/23 A2991 RMK A01
KBBF 012215Z AUTO 10005KT 10SM CLR 29/23 A2991 RMK A01
KBBF 012155Z AUTO 09005KT 10SM CLR 29/23 A2991 RMK A01
KBBF 012135Z AUTO 08003KT 10SM CLR 29/23 A2991 RMK A01
KBBF 012115Z AUTO 06004KT 10SM CLR 29/22 A2992 RMK A01
KBBF 012055Z AUTO 06004KT 10SM CLR 29/22 A2993 RMK A01
KBBF 012035Z AUTO 06006KT 10SM CLR 28/23 A2994 RMK A01
KBBF 012015Z AUTO 04005KT 10SM CLR 28/22 A2994 RMK A01
KBBF 011955Z AUTO 06006KT 10SM CLR 28/22 A2995 RMK A01
KBBF 011935Z AUTO 06006KT 10SM CLR 28/22 A2996 RMK A01
KBBF 011915Z AUTO 04006KT 10SM CLR 28/22 A2996 RMK A01
KBBF 011855Z AUTO 04007KT 10SM CLR 28/22 A2996 RMK A01
KBBF 011835Z AUTO 03006KT 10SM CLR 28/22 A2997 RMK A01
KBBF 011815Z AUTO 05005KT 10SM CLR 28/23 A2997 RMK A01
KBBF 011755Z AUTO 05006KT 10SM CLR 28/22 A2998 RMK A01
KBBF 011735Z AUTO 03006KT 10SM CLR 28/23 A2998 RMK A01
KBBF 011715Z AUTO 04006KT 10SM CLR 28/23 A2999 RMK A01
KBBF 011655Z AUTO 03007KT 10SM CLR 28/23 A2999 RMK A01
KBBF 011635Z AUTO 05007KT 10SM CLR 27/23 A3000 RMK A01
KBBF 011615Z AUTO 04009KT 10SM CLR 27/23 A2999 RMK A01
KBBF 011555Z AUTO 04010KT 10SM CLR 27/23 A2999 RMK A01
KBBF 011535Z AUTO 04011KT 10SM CLR 28/23 A2999 RMK A01
KBBF 011515Z AUTO 04010KT 10SM CLR 28/23 A2999 RMK A01
KBBF 011455Z AUTO 04010KT 10SM CLR 28/23 A2999 RMK A01
KBBF 011435Z AUTO 03011KT 10SM CLR 27/23 A2999 RMK A01
KBBF 011415Z AUTO 03012KT 10SM SCT018 SCT022 BKN028 27/24 A2999 RMK A01
KBBF 011355Z AUTO 03014KT 10SM FEW013 BKN019 BKN027 28/24 A2998 RMK A01
KBBF 011335Z AUTO 02009KT 10SM SCT018 SCT023 BKN027 28/23 A2998 RMK A01
KBBF 011315Z AUTO 01010KT 10SM BKN017 BKN023 28/23 A2997 RMK A01
KBBF 011255Z AUTO 03010KT 10SM SCT016 BKN020 27/24 A2996 RMK A01
KBBF 011235Z AUTO 01010KT 10SM BKN020 27/24 A2995 RMK A01
KBBF 011215Z AUTO 01009KT 10SM CLR 28/24 A2994 RMK A01
KBBF 011155Z AUTO 35008KT 10SM CLR 28/24 A2994 RMK A01
KBBF 011135Z AUTO 35008KT 10SM CLR 28/24 A2993 RMK A01
KBBF 011115Z AUTO 36008KT 10SM FEW014 28/24 A2994 RMK A01
KBBF 011055Z AUTO 01006KT 10SM SCT013 28/24 A2994 RMK A01
KBBF 011035Z AUTO 02005KT 10SM SCT012 28/25 A2994 RMK A01
KBBF 011015Z AUTO 02004KT 10SM CLR 28/25 A2994 RMK A01
KBBF 010955Z AUTO 03004KT 10SM FEW012 28/25 A2995 RMK A01
KBBF 010935Z AUTO 04004KT 10SM CLR 28/25 A2995 RMK A01
KBBF 010915Z AUTO 04004KT 10SM SCT012 SCT016 28/25 A2995 RMK A01
KBBF 010855Z AUTO 02007KT 9SM SCT013 28/25 A2995 RMK A01
KBBF 010835Z AUTO 01008KT 10SM CLR 28/25 A2995 RMK A01
KBBF 010815Z AUTO 36007KT 10SM CLR 28/24 A2995 RMK A01
KBBF 010755Z AUTO 35006KT 10SM CLR 28/24 A2995 RMK A01
KBBF 010735Z AUTO 02003KT 10SM CLR 29/24 A2995 RMK A01
KBBF 010715Z AUTO 01003KT 10SM CLR 29/24 A2995 RMK A01
KBBF 010655Z AUTO 00000KT 10SM CLR 29/24 A2995 RMK A01
KBBF 010635Z AUTO 00000KT 10SM CLR 29/24 A2995 RMK A01
KBBF 010615Z AUTO 00000KT 10SM CLR 29/23 A2994 RMK A01
KBBF 010555Z AUTO 00000KT 10SM CLR 29/23 A2994 RMK A01
KBBF 010535Z AUTO 19003KT 10SM CLR 29/24 A2994 RMK A01
KBBF 010515Z AUTO 20007KT 10SM CLR 29/24 A2994 RMK A01
KBBF 010455Z AUTO 20006KT 10SM CLR 29/24 A2995 RMK A01
KBBF 010435Z AUTO 19008KT 10SM CLR 28/24 A2995 RMK A01
KBBF 010415Z AUTO 18006KT 10SM CLR 28/24 A2994 RMK A01
KBBF 010355Z AUTO 17005KT 10SM CLR 28/24 A2994 RMK A01
KBBF 010335Z AUTO 20006KT 10SM CLR 28/24 A2993 RMK A01
KBBF 010315Z AUTO 19007KT 10SM CLR 28/24 A2992 RMK A01
KBBF 010255Z AUTO 19007KT 10SM CLR 28/24 A2992 RMK A01
KBBF 010235Z AUTO VRB03KT 9SM CLR 28/24 A2991 RMK A01
KBBF 010215Z AUTO 09004KT 9SM CLR 28/24 A2992 RMK A01
KBBF 010155Z AUTO 16004KT 9SM FEW055 SCT070 BKN100 28/24 A2992 RMK A01
KBBF 010135Z AUTO 7SM SCT039 BKN070 OVC095 28/24 A2992 RMK A01
KBBF 010115Z AUTO 00000KT 7SM SCT046 BKN070 OVC090 28/25 A2992 RMK A01
KBBF 010055Z AUTO VRB06KT 7SM FEW017 SCT050 BKN080 27/24 A2992 RMK A01
KBBF 010035Z AUTO 06007KT 9SM FEW080 FEW095 SCT120 28/23 A2993 RMK A01
KBBF 010015Z AUTO 05005KT 10SM FEW065 FEW075 SCT120 27/23 A2992 RMK A01
KBBF 312355Z AUTO 02008KT 9SM CLR 28/23 A2994 RMK A01
KBBF 312335Z AUTO 07011G18KT 9SM CLR 27/23 A2993 RMK A01
KBBF 312315Z AUTO 06022G29KT 7SM FEW020 FEW028 SCT049 27/23 A2992 RMK A01
KBBF 312255Z AUTO 05032G38KT 9SM FEW020 FEW025 SCT047 28/23 A2992 RMK A01
KBBF 312235Z AUTO VRB03KT 10SM CLR 29/24 A2991 RMK A01
KBBF 312215Z AUTO 00000KT 10SM CLR 30/24 A2993 RMK A01
KBBF 312155Z AUTO VRB04KT 10SM CLR 29/24 A2993 RMK A01
KBBF 312135Z AUTO 16007KT 10SM CLR 29/24 A2992 RMK A01
KBBF 312115Z AUTO 16005KT 10SM CLR 29/24 A2992 RMK A01
KBBF 312055Z AUTO 00000KT 10SM CLR 29/25 A2993 RMK A01
KBBF 312035Z AUTO 20004KT 10SM CLR 29/24 A2994 RMK A01
KBBF 312015Z AUTO 28004KT 10SM CLR 29/24 A2994 RMK A01
KBBF 311955Z AUTO 00000KT 10SM CLR 29/24 A2994 RMK A01
KBBF 311935Z AUTO 18004KT 10SM CLR 28/24 A2995 RMK A01
KBBF 311915Z AUTO 00000KT 10SM CLR 28/24 A2996 RMK A01
KBBF 311855Z AUTO 19006KT 10SM CLR 27/23 A2995 RMK A01
KBBF 311835Z AUTO 22009KT 10SM FEW004 FEW027 SCT034 26/22 A2996 RMK A01
KBBF 311815Z AUTO 23013G26KT 1/2SM HZ BKN004 BKN021 OVC026 26/22 A2997 RMK A01
KBBF 311755Z AUTO 25022KT 9SM FEW016 BKN024 BKN033 27/22 A2997 RMK A01
KBBF 311735Z AUTO 32013KT 9SM CLR 29/25 A2998 RMK A01
KBBF 311715Z AUTO 33012KT 9SM CLR 29/25 A2997 RMK A01
KBBF 311655Z AUTO 32013KT 9SM CLR 29/25 A2998 RMK A01
KBBF 311635Z AUTO 32011KT 10SM CLR 29/24 A2998 RMK A01
KBBF 311615Z AUTO 31009KT 10SM CLR 30/24 A2997 RMK A01
KBBF 311555Z AUTO 30007KT 10SM CLR 30/23 A2997 RMK A01
KBBF 311535Z AUTO 30008KT 10SM CLR 30/23 A2998 RMK A01
KBBF 311515Z AUTO 28007KT 10SM FEW023 FEW042 FEW050 30/22 A2997 RMK A01
KBBF 311455Z AUTO 27010KT 10SM FEW023 SCT030 SCT042 29/22 A2996 RMK A01
KBBF 311435Z AUTO 29011KT 10SM SCT025 SCT030 SCT042 29/23 A2996 RMK A01
KBBF 311415Z AUTO 24008KT 10SM CLR 30/24 A2996 RMK A01
KBBF 311355Z AUTO 23009KT 10SM CLR 30/24 A2996 RMK A01
KBBF 311335Z AUTO 22008KT 10SM CLR 30/24 A2996 RMK A01
KBBF 311315Z AUTO 22008KT 10SM CLR 30/24 A2996 RMK A01
KBBF 311255Z AUTO 21008KT 10SM FEW021 29/24 A2996 RMK A01
KBBF 311235Z AUTO 21008KT 10SM FEW021 29/24 A2995 RMK A01
KBBF 311215Z AUTO 21011KT 10SM FEW020 FEW025 29/24 A2995 RMK A01
KBBF 311155Z AUTO 19012KT 9SM FEW020 SCT025 29/25 A2993 RMK A01
KBBF 311135Z AUTO 18012KT 9SM BKN022 BKN029 BKN035 29/24 A2993 RMK A01
KBBF 311115Z AUTO 18012KT 10SM BKN022 BKN035 29/24 A2994 RMK A01
KBBF 311055Z AUTO 20011KT FEW021 30/25 A2994 RMK A01
KBBF 311035Z AUTO 21013KT 10SM CLR 29/24 A2993 RMK A01
KBBF 311015Z AUTO 20013KT 9SM CLR 30/24 A2993 RMK A01
KBBF 310955Z AUTO 20012KT 9SM FEW021 FEW026 30/24 A2993 RMK A01
KBBF 310935Z AUTO 19015KT 10SM FEW021 SCT026 29/24 A2993 RMK A01
KBBF 310915Z AUTO 19013KT 10SM FEW022 29/24 A2993 RMK A01
KBBF 310855Z AUTO 19012KT 10SM CLR 30/24 A2994 RMK A01
KBBF 310835Z AUTO 19013KT 10SM FEW021 30/24 A2994 RMK A01
KBBF 310815Z AUTO 19013KT 10SM SCT020 29/24 A2994 RMK A01
KBBF 310755Z AUTO 19014KT 10SM FEW020 30/25 A2994 RMK A01
KBBF 310735Z AUTO 19013KT 10SM CLR 30/24 A2995 RMK A01
KBBF 310715Z AUTO 19015KT 10SM CLR 30/24 A2994 RMK A01
KBBF 310655Z AUTO 19015KT 10SM CLR 30/24 A2994 RMK A01
KBBF 310635Z AUTO 19015KT 10SM CLR 30/24 A2995 RMK A01
KBBF 310615Z AUTO 19015KT 10SM CLR 30/24 A2995 RMK A01
KBBF 310555Z AUTO 18015KT 10SM CLR 30/24 A2995 RMK A01
KBBF 310535Z AUTO 18014KT 10SM CLR 30/24 A2995 RMK A01
KBBF 310515Z AUTO 19014KT 10SM CLR 30/24 A2995 RMK A01
KBBF 310455Z AUTO 18013KT 10SM CLR 29/24 A2995 RMK A01
KBBF 310435Z AUTO 18014KT 10SM CLR 30/24 A2994 RMK A01
KBBF 310415Z AUTO 18014KT 10SM CLR 30/24 A2994 RMK A01
KBBF 310355Z AUTO 18011KT 10SM CLR 30/24 A2994 RMK A01
KBBF 310335Z AUTO 17010KT FEW021 30/25 A2994 RMK A01
KBBF 310315Z AUTO 17012KT 10SM FEW021 30/25 A2994 RMK A01
KBBF 310255Z AUTO 16011KT 10SM CLR 30/25 A2993 RMK A01
KBBF 310235Z AUTO 15010KT 10SM CLR 30/25 A2993 RMK A01
KBBF 310215Z AUTO 15009KT 10SM CLR 30/24 A2992 RMK A01
KBBF 310155Z AUTO 16009KT 10SM CLR 30/24 A2992 RMK A01
KBBF 310135Z AUTO 15008KT 10SM CLR 30/25 A2991 RMK A01
KBBF 310115Z AUTO 16009KT 10SM CLR 29/25 A2991 RMK A01
KBBF 310055Z AUTO VRB05KT 10SM CLR 30/24 A2991 RMK A01
KBBF 310035Z AUTO 00000KT 10SM CLR 30/24 A2991 RMK A01
KBBF 310015Z AUTO VRB05KT 10SM CLR 30/25 A2991 RMK A01
KBBF 302355Z AUTO 15008KT 10SM CLR 30/25 A2990 RMK A01